Time;durP1;ratioP1;P1;durP2;ratioP2;P2;SDS_P1;SDS_P2;PMS_P1;PMS_P2;Temp;Humidity;BMP_temperature;BMP_pressure;BME280_temperature;BME280_humidity;BME280_pressure;Samples;Min_cycle;Max_cycle;Signal;HPM_P1;HPM_P2
2023/03/12 00:02:15;;;;;;;4.72;1.98;;;3.70;1.00;;;;;;25758215;23;20012;-42
2023/03/12 00:12:16;;;;;;;7.55;2.92;;;3.70;1.00;;;;;;25751680;23;20031;-42
2023/03/12 00:22:21;;;;;;;2.95;1.80;;;3.70;1.00;;;;;;25757748;22;20323;-42
2023/03/12 00:32:22;;;;;;;6.40;2.30;;;3.70;1.00;;;;;;25763152;22;20016;-42
2023/03/12 00:42:24;;;;;;;3.47;2.42;;;3.70;1.00;;;;;;25763911;23;20456;-42
2023/03/12 00:52:25;;;;;;;3.40;1.60;;;3.60;1.00;;;;;;25759126;23;20099;-42
2023/03/12 01:02:26;;;;;;;3.15;1.98;;;3.70;1.00;;;;;;25763802;23;20008;-42
2023/03/12 01:12:27;;;;;;;3.80;1.67;;;3.60;1.00;;;;;;25756196;22;20020;-42
2023/03/12 01:22:28;;;;;;;3.80;2.03;;;3.70;1.00;;;;;;25764848;23;20012;-42
2023/03/12 01:32:29;;;;;;;4.15;1.50;;;3.70;1.00;;;;;;25763635;23;20012;-42
2023/03/12 01:42:30;;;;;;;5.43;2.42;;;3.80;1.00;;;;;;25775499;22;20285;-42
2023/03/12 01:52:34;;;;;;;3.55;2.22;;;3.70;1.00;;;;;;25762498;22;20020;-42
2023/03/12 02:02:36;;;;;;;3.17;1.85;;;3.60;1.00;;;;;;25768540;23;20035;-42
2023/03/12 02:12:37;;;;;;;3.97;2.10;;;3.70;1.00;;;;;;25767815;23;20016;-42
2023/03/12 02:22:43;;;;;;;2.40;1.00;;;3.70;1.00;;;;;;25771138;23;20381;-42
2023/03/12 02:32:47;;;;;;;4.97;2.78;;;3.70;1.00;;;;;;25767313;23;20066;-42
2023/03/12 02:42:48;;;;;;;3.40;2.03;;;3.80;1.00;;;;;;25769969;22;20475;-42
2023/03/12 02:52:49;;;;;;;9.77;2.50;;;3.70;1.00;;;;;;25770030;23;20016;-42
2023/03/12 03:02:50;;;;;;;8.02;2.83;;;3.70;1.00;;;;;;25766781;23;20019;-42
2023/03/12 03:12:52;;;;;;;8.70;2.88;;;3.60;1.00;;;;;;25765187;22;20024;-42
2023/03/12 03:22:53;;;;;;;9.15;2.17;;;3.60;1.00;;;;;;25767691;23;20366;-42
2023/03/12 03:43:04;;;;;;;3.92;2.05;;;3.60;1.00;;;;;;25763372;22;20226;-42
2023/03/12 03:53:08;;;;;;;4.15;1.30;;;3.50;1.00;;;;;;25764166;22;20857;-42
2023/03/12 04:03:09;;;;;;;3.72;2.22;;;3.50;1.00;;;;;;25774460;22;20021;-42
2023/03/12 04:13:10;;;;;;;4.53;1.45;;;3.50;1.00;;;;;;25777054;22;20091;-42
2023/03/12 04:23:11;;;;;;;5.38;1.88;;;3.60;1.00;;;;;;25775757;22;20020;-42
2023/03/12 04:33:12;;;;;;;2.30;1.45;;;3.60;1.00;;;;;;25777394;22;20016;-42
2023/03/12 04:43:13;;;;;;;2.83;1.60;;;3.70;1.00;;;;;;25887792;22;20023;-42
2023/03/12 04:53:14;;;;;;;3.00;1.35;;;3.70;1.00;;;;;;25899977;22;20333;-42
2023/03/12 05:03:16;;;;;;;2.47;1.40;;;3.70;1.00;;;;;;25899296;22;20480;-42
2023/03/12 05:13:20;;;;;;;2.92;1.45;;;3.60;1.00;;;;;;25904367;22;20016;-41
2023/03/12 05:23:21;;;;;;;5.70;2.70;;;3.60;1.00;;;;;;25907234;22;20091;-41
2023/03/12 05:33:23;;;;;;;3.60;2.00;;;3.60;1.00;;;;;;25903847;22;20019;-42
2023/03/12 05:43:26;;;;;;;3.97;1.52;;;3.60;1.00;;;;;;25902602;22;20046;-41
2023/03/12 05:53:27;;;;;;;4.70;2.50;;;3.60;1.00;;;;;;25902295;22;20016;-42
2023/03/12 06:03:28;;;;;;;5.50;2.00;;;3.50;1.00;;;;;;25903419;22;20011;-41
2023/03/12 06:13:29;;;;;;;5.15;2.10;;;3.40;1.00;;;;;;25906644;22;20015;-41
2023/03/12 06:23:30;;;;;;;4.72;2.15;;;3.30;12.20;;;;;;25909985;22;20389;-42
2023/03/12 06:33:31;;;;;;;5.70;1.98;;;3.40;29.70;;;;;;25905212;22;20015;-42
2023/03/12 06:43:35;;;;;;;7.20;3.17;;;3.30;84.10;;;;;;25899472;22;20528;-42
2023/03/12 06:53:36;;;;;;;6.00;3.92;;;3.20;99.90;;;;;;25893087;22;20015;-41
2023/03/12 07:03:37;;;;;;;5.93;3.65;;;3.20;99.90;;;;;;25904110;22;20011;-42
2023/03/12 07:13:38;;;;;;;6.95;3.75;;;3.20;99.90;;;;;;25896387;22;20015;-41
2023/03/12 07:23:39;;;;;;;11.13;4.65;;;3.30;99.90;;;;;;25899524;22;20016;-41
2023/03/12 07:33:40;;;;;;;6.10;3.40;;;3.40;99.90;;;;;;25897325;22;20621;-42
2023/03/12 07:43:41;;;;;;;7.28;3.55;;;3.50;99.90;;;;;;25897844;22;20019;-42
2023/03/12 07:53:43;;;;;;;34.63;4.82;;;3.60;99.90;;;;;;25895257;22;20020;-42
2023/03/12 08:03:44;;;;;;;8.63;3.33;;;3.70;99.90;;;;;;25882666;22;20045;-42
2023/03/12 08:13:45;;;;;;;6.93;3.72;;;3.90;99.90;;;;;;25896204;22;20011;-41
2023/03/12 08:23:46;;;;;;;28.20;6.35;;;4.10;99.90;;;;;;25905058;22;20523;-41
2023/03/12 08:33:47;;;;;;;8.25;4.57;;;4.20;99.90;;;;;;25852765;22;20012;-42
2023/03/12 08:43:48;;;;;;;15.55;6.25;;;4.30;99.90;;;;;;25856539;22;20024;-41
2023/03/12 08:53:49;;;;;;;14.70;6.32;;;4.50;99.90;;;;;;25889067;22;20433;-41
2023/03/12 09:03:53;;;;;;;12.10;6.18;;;4.80;99.90;;;;;;25898217;22;20004;-42
2023/03/12 09:13:54;;;;;;;10.50;6.50;;;5.20;99.90;;;;;;25899062;22;21573;-41
2023/03/12 09:23:55;;;;;;;12.50;6.95;;;5.50;99.90;;;;;;25902197;22;20019;-42
2023/03/12 09:33:57;;;;;;;23.65;10.98;;;5.70;99.90;;;;;;25881019;22;20437;-42
2023/03/12 09:44:07;;;;;;;19.58;9.25;;;6.20;99.90;;;;;;25845824;22;20034;-42
2023/03/12 09:54:35;;;;;;;11.13;6.53;;;6.70;99.90;;;;;;25878380;22;20028;-40
2023/03/12 10:04:39;;;;;;;;;;;7.00;99.90;;;;;;25882569;22;20094;-39
2023/03/12 10:15:03;;;;;;;14.38;7.05;;;7.00;99.90;;;;;;25890868;22;20356;-39
2023/03/12 10:25:15;;;;;;;16.00;8.65;;;7.10;99.90;;;;;;25883597;22;20317;-40
2023/03/12 10:35:23;;;;;;;13.75;5.75;;;7.50;99.90;;;;;;25891066;22;20418;-40
2023/03/12 10:45:42;;;;;;;21.92;8.25;;;7.80;99.90;;;;;;25872925;22;20066;-40
2023/03/12 10:56:01;;;;;;;10.50;5.90;;;8.00;99.90;;;;;;25889936;22;20504;-40
2023/03/12 11:06:05;;;;;;;9.77;5.30;;;8.20;99.90;;;;;;25878875;22;20529;-42
2023/03/12 11:16:16;;;;;;;19.98;4.35;;;8.40;99.90;;;;;;25893880;22;20202;-42
2023/03/12 11:26:21;;;;;;;11.05;4.53;;;8.60;99.90;;;;;;25908456;22;20019;-42
2023/03/12 11:36:30;;;;;;;37.50;7.53;;;8.80;99.90;;;;;;25902503;22;20015;-43
2023/03/12 11:46:52;;;;;;;14.48;4.22;;;8.90;99.90;;;;;;25915261;22;20083;-42
2023/03/12 11:57:06;;;;;;;8.75;2.65;;;9.10;99.90;;;;;;25909529;22;20011;-43
2023/03/12 12:07:30;;;;;;;5.78;2.42;;;9.20;99.90;;;;;;25880077;22;20023;-43
2023/03/12 12:17:42;;;;;;;7.97;3.33;;;9.40;99.90;;;;;;25898972;22;20512;-42
2023/03/12 12:27:58;;;;;;;9.57;3.38;;;9.90;99.90;;;;;;25890499;22;20445;-43
2023/03/12 12:38:02;;;;;;;7.40;3.15;;;10.10;99.90;;;;;;25897986;22;21466;-42
2023/03/12 12:48:25;;;;;;;10.38;3.20;;;10.30;92.00;;;;;;25881568;22;20024;-43
2023/03/12 12:58:56;;;;;;;18.02;4.93;;;10.30;67.50;;;;;;25892685;22;20019;-43
2023/03/12 13:09:11;;;;;;;13.57;3.65;;;10.30;51.80;;;;;;25869472;22;20046;-42
2023/03/12 13:19:12;;;;;;;6.38;2.78;;;10.70;29.00;;;;;;25631407;22;83578;-43
2023/03/12 13:29:30;;;;;;;10.45;4.07;;;10.50;24.60;;;;;;25557989;22;85411;-43
2023/03/12 13:39:33;;;;;;;7.97;2.43;;;10.60;20.20;;;;;;25888672;22;20437;-43
2023/03/12 13:49:45;;;;;;;7.30;1.70;;;10.80;15.40;;;;;;25884751;22;20356;-43
2023/03/12 13:59:49;;;;;;;8.35;2.42;;;11.60;6.20;;;;;;25898621;22;20011;-43
2023/03/12 14:10:07;;;;;;;5.20;2.55;;;12.30;1.00;;;;;;25839516;22;20011;-42
2023/03/12 14:20:16;;;;;;;6.32;1.77;;;13.30;1.00;;;;;;25886826;22;20015;-42
2023/03/12 14:30:22;;;;;;;7.32;2.42;;;12.70;1.00;;;;;;25877859;22;20019;-42
2023/03/12 14:40:43;;;;;;;5.88;2.22;;;12.50;1.00;;;;;;25883672;22;20568;-42
2023/03/12 14:50:45;;;;;;;12.23;3.47;;;12.10;1.00;;;;;;25879009;22;20011;-43
2023/03/12 15:01:04;;;;;;;10.18;2.83;;;11.70;1.00;;;;;;25892655;22;20016;-42
2023/03/12 15:11:05;;;;;;;5.47;2.05;;;11.50;1.00;;;;;;25872324;22;21508;-42
2023/03/12 15:21:06;;;;;;;5.47;2.33;;;11.40;1.00;;;;;;25887412;22;20015;-42
2023/03/12 15:31:14;;;;;;;6.28;2.58;;;11.20;1.00;;;;;;25852536;22;20349;-42
2023/03/12 15:41:41;;;;;;;12.18;3.05;;;11.10;1.00;;;;;;25862556;22;20024;-42
2023/03/12 15:52:16;;;;;;;6.03;2.83;;;11.10;1.00;;;;;;25856488;22;20026;-42
2023/03/12 16:02:38;;;;;;;12.82;3.17;;;11.00;1.00;;;;;;25890461;22;20015;-42
2023/03/12 16:12:42;;;;;;;7.82;3.30;;;11.00;1.00;;;;;;25883120;22;20480;-42
2023/03/12 16:22:44;;;;;;;11.48;4.13;;;11.00;1.00;;;;;;25892495;22;20022;-43
2023/03/12 16:32:45;;;;;;;13.60;4.15;;;10.80;1.00;;;;;;25853741;22;20019;-42
2023/03/12 16:42:49;;;;;;;3.90;1.75;;;10.80;1.00;;;;;;25910743;22;20023;-42
2023/03/12 16:52:50;;;;;;;13.88;4.40;;;10.80;1.00;;;;;;25913078;22;20446;-42
2023/03/12 17:02:56;;;;;;;20.25;4.53;;;10.80;1.00;;;;;;25911360;22;20022;-42
2023/03/12 17:12:57;;;;;;;10.38;3.50;;;10.60;1.00;;;;;;25875625;22;20062;-42
2023/03/12 17:22:58;;;;;;;9.45;3.15;;;10.30;3.40;;;;;;25897320;22;20062;-42
2023/03/12 17:33:12;;;;;;;8.23;3.20;;;10.20;5.10;;;;;;25879659;22;20011;-42
2023/03/12 17:43:13;;;;;;;5.03;2.08;;;10.10;6.60;;;;;;25892389;22;20046;-42
2023/03/12 17:53:15;;;;;;;7.40;2.88;;;10.00;8.60;;;;;;25891291;22;20041;-42
2023/03/12 18:03:16;;;;;;;6.68;1.38;;;10.00;9.90;;;;;;25875684;22;20142;-42
2023/03/12 18:13:17;;;;;;;4.10;2.05;;;10.10;13.30;;;;;;25861885;22;20104;-42
2023/03/12 18:23:19;;;;;;;5.70;1.50;;;10.20;11.70;;;;;;25887396;22;20018;-42
2023/03/12 18:33:20;;;;;;;4.13;0.85;;;10.10;10.80;;;;;;25888549;22;20015;-42
2023/03/12 18:43:21;;;;;;;4.50;1.65;;;10.20;9.30;;;;;;25892345;22;20026;-42
2023/03/12 18:53:22;;;;;;;14.43;1.80;;;10.20;9.70;;;;;;25879496;22;20018;-42
2023/03/12 19:03:25;;;;;;;4.47;1.00;;;10.20;9.90;;;;;;25887861;22;20022;-42
2023/03/12 19:13:26;;;;;;;5.30;1.38;;;10.10;13.00;;;;;;25883284;22;20011;-42
2023/03/12 19:23:28;;;;;;;5.20;1.20;;;10.10;18.60;;;;;;25886349;22;20388;-42
2023/03/12 19:33:29;;;;;;;7.57;1.92;;;9.90;23.20;;;;;;25852335;22;20261;-42
2023/03/12 19:43:31;;;;;;;3.70;1.52;;;9.90;24.30;;;;;;25882613;22;20019;-42
2023/03/12 19:53:32;;;;;;;5.05;1.15;;;10.00;19.30;;;;;;25887955;22;20016;-42
2023/03/12 20:03:33;;;;;;;4.95;1.92;;;10.10;15.00;;;;;;25890723;22;20004;-42
2023/03/12 20:13:37;;;;;;;7.35;2.40;;;10.10;13.20;;;;;;25890732;22;20012;-42
2023/03/12 20:23:38;;;;;;;2.92;1.40;;;10.10;13.10;;;;;;25846865;22;20007;-42
2023/03/12 20:33:40;;;;;;;3.88;1.65;;;10.10;13.00;;;;;;25897315;22;20019;-42
2023/03/12 20:43:43;;;;;;;13.52;3.83;;;10.00;16.20;;;;;;25900394;22;20485;-42
2023/03/12 20:53:44;;;;;;;16.92;3.55;;;9.90;20.80;;;;;;25892088;22;20042;-42
2023/03/12 21:03:45;;;;;;;5.43;2.67;;;9.80;23.50;;;;;;25892294;22;20015;-43
2023/03/12 21:13:46;;;;;;;5.20;1.50;;;9.80;24.80;;;;;;25885319;22;20016;-42
2023/03/12 21:23:47;;;;;;;5.43;1.60;;;9.80;26.10;;;;;;25906398;22;20016;-43
2023/03/12 21:33:48;;;;;;;4.40;2.15;;;9.70;26.80;;;;;;25888725;22;20079;-43
2023/03/12 21:43:49;;;;;;;5.20;2.40;;;9.80;25.00;;;;;;25917992;22;20363;-42
2023/03/12 21:53:55;;;;;;;3.92;1.83;;;9.70;26.10;;;;;;25905257;22;20016;-42
2023/03/12 22:03:58;;;;;;;19.50;3.33;;;9.70;26.10;;;;;;25909004;22;20007;-43
2023/03/12 22:13:59;;;;;;;5.80;1.75;;;9.60;29.20;;;;;;25902269;22;20015;-42
2023/03/12 22:24:00;;;;;;;12.85;4.50;;;9.60;29.10;;;;;;25912461;22;20012;-42
2023/03/12 22:34:02;;;;;;;6.80;2.22;;;9.50;35.40;;;;;;25911464;22;20293;-41
2023/03/12 22:44:06;;;;;;;10.02;2.60;;;9.30;52.70;;;;;;25914553;22;20031;-41
2023/03/12 22:54:07;;;;;;;5.65;2.10;;;9.10;84.50;;;;;;25913965;22;20022;-41
2023/03/12 23:04:08;;;;;;;10.27;1.90;;;9.10;99.90;;;;;;25876352;22;20104;-49
2023/03/12 23:14:09;;;;;;;7.32;1.95;;;9.10;99.90;;;;;;25900934;22;20449;-41
2023/03/12 23:24:10;;;;;;;8.30;3.13;;;9.20;99.90;;;;;;25910267;22;20070;-40
2023/03/12 23:34:11;;;;;;;12.52;3.40;;;9.20;99.90;;;;;;25906416;22;20050;-40
2023/03/12 23:44:12;;;;;;;10.88;3.15;;;9.20;99.90;;;;;;25909648;22;20016;-40
2023/03/12 23:54:14;;;;;;;7.80;4.03;;;9.20;99.90;;;;;;25892630;22;20040;-40
